Time;durP1;ratioP1;P1;durP2;ratioP2;P2;SDS_P1;SDS_P2;PMS_P1;PMS_P2;Temp;Humidity;BMP_temperature;BMP_pressure;BME280_temperature;BME280_humidity;BME280_pressure;Samples;Min_cycle;Max_cycle;Signal;HPM_P1;HPM_P2
2020/12/11 00:02:04;;;;;;;10.13;4.90;;;;;;;-5.00;44.47;100690.84;10504765;28;20409;-52
2020/12/11 00:07:06;;;;;;;15.73;4.70;;;;;;;-4.96;44.36;100675.41;10503864;28;20467;-53
2020/12/11 00:12:08;;;;;;;9.90;3.95;;;;;;;-4.96;44.44;100689.97;10502224;28;20045;-55
2020/12/11 00:17:10;;;;;;;14.23;5.57;;;;;;;-4.96;44.29;100687.41;10503442;28;20047;-55
2020/12/11 00:22:14;;;;;;;12.65;4.70;;;;;;;-4.97;44.32;100691.69;10503050;28;20062;-53
2020/12/11 00:27:16;;;;;;;12.68;5.15;;;;;;;-5.02;44.37;100690.84;10503325;28;20063;-56
2020/12/11 00:32:18;;;;;;;10.18;4.38;;;;;;;-5.14;44.53;100686.66;10502467;28;20048;-53
2020/12/11 00:37:21;;;;;;;13.60;4.88;;;;;;;-5.27;44.82;100679.88;10503004;28;20144;-53
2020/12/11 00:42:22;;;;;;;12.93;5.73;;;;;;;-5.32;45.02;100679.06;10502061;28;20041;-53
2020/12/11 00:47:24;;;;;;;16.70;5.88;;;;;;;-5.30;45.01;100672.19;10501409;28;20377;-53
2020/12/11 00:52:28;;;;;;;10.63;5.47;;;;;;;-5.33;45.15;100654.28;10500250;28;20044;-53
2020/12/11 00:57:29;;;;;;;14.45;4.53;;;;;;;-5.36;45.39;100651.72;10481701;28;20068;-52
2020/12/11 01:02:31;;;;;;;8.93;4.32;;;;;;;-5.33;45.19;100654.28;10459745;28;20503;-55
2020/12/11 01:07:34;;;;;;;12.52;5.70;;;;;;;-5.35;45.04;100651.72;10487721;28;20515;-54
2020/12/11 01:12:36;;;;;;;13.77;4.13;;;;;;;-5.34;45.09;100639.75;10500962;28;20142;-54
2020/12/11 01:17:37;;;;;;;11.82;5.05;;;;;;;-5.37;45.11;100638.06;10501182;28;20385;-53
2020/12/11 01:22:40;;;;;;;14.30;6.90;;;;;;;-5.37;44.94;100625.25;10505491;28;20131;-55
2020/12/11 01:27:41;;;;;;;16.83;6.43;;;;;;;-5.37;44.79;100624.41;10502562;28;20063;-53
2020/12/11 01:32:43;;;;;;;17.40;6.13;;;;;;;-5.38;44.93;100633.81;10501913;28;20040;-53
2020/12/11 01:37:46;;;;;;;18.35;6.57;;;;;;;-5.40;44.68;100617.56;10500876;28;20066;-53
2020/12/11 01:42:47;;;;;;;16.70;5.45;;;;;;;-5.44;44.96;100605.66;10500253;28;20045;-53
2020/12/11 01:47:49;;;;;;;15.35;5.70;;;;;;;-5.51;45.31;100613.38;10497408;28;20064;-55
2020/12/11 01:52:52;;;;;;;13.82;5.57;;;;;;;-5.56;45.46;100601.44;10497909;28;20385;-53
2020/12/11 01:57:59;;;;;;;16.30;5.72;;;;;;;-5.59;45.77;100601.44;10499497;28;20087;-54
2020/12/11 02:03:05;;;;;;;17.70;6.50;;;;;;;-5.60;45.57;100601.47;10499654;28;20037;-53
2020/12/11 02:08:08;;;;;;;14.10;6.28;;;;;;;-5.57;45.76;100610.00;10505076;28;20056;-53
2020/12/11 02:13:09;;;;;;;12.57;5.40;;;;;;;-5.59;45.88;100615.97;10501552;28;20072;-54
2020/12/11 02:18:11;;;;;;;19.98;7.47;;;;;;;-5.63;45.83;100604.91;10499533;28;20048;-53
2020/12/11 02:23:14;;;;;;;12.38;5.32;;;;;;;-5.64;45.92;100599.78;10497899;28;20076;-52
2020/12/11 02:28:15;;;;;;;16.10;6.03;;;;;;;-5.68;46.07;100601.50;10497879;28;20056;-53
2020/12/11 02:33:18;;;;;;;11.23;5.43;;;;;;;-5.65;46.15;100601.47;10498520;28;20082;-52
2020/12/11 02:38:21;;;;;;;8.67;3.87;;;;;;;-5.64;46.18;100602.31;10497337;28;20433;-53
2020/12/11 02:43:23;;;;;;;13.33;4.97;;;;;;;-5.69;46.50;100591.28;10497939;28;20041;-56
2020/12/11 02:48:24;;;;;;;17.63;5.00;;;;;;;-5.76;46.45;100598.09;10496925;28;20142;-53
2020/12/11 02:53:27;;;;;;;12.80;5.43;;;;;;;-5.75;46.52;100604.94;10500885;28;20044;-53
2020/12/11 02:58:29;;;;;;;11.98;5.60;;;;;;;-5.75;46.90;100593.88;10473159;28;20509;-54
2020/12/11 03:03:30;;;;;;;16.08;4.82;;;;;;;-5.80;46.83;100606.66;10464785;28;20052;-55
2020/12/11 03:08:33;;;;;;;11.57;5.13;;;;;;;-5.81;47.11;100593.03;10470429;28;20068;-52
2020/12/11 03:13:35;;;;;;;12.43;4.93;;;;;;;-5.80;47.17;100592.16;10464322;28;20045;-54
2020/12/11 03:18:37;;;;;;;13.55;5.00;;;;;;;-5.78;46.93;100600.69;10464755;28;20052;-52
2020/12/11 03:23:39;;;;;;;16.55;6.22;;;;;;;-5.78;47.02;100595.56;10463622;28;20055;-54
2020/12/11 03:28:41;;;;;;;18.00;6.10;;;;;;;-5.72;46.55;100594.69;10484661;28;20489;-57
2020/12/11 03:33:42;;;;;;;12.57;5.32;;;;;;;-5.72;46.73;100599.81;10504814;28;20058;-53
2020/12/11 03:38:45;;;;;;;13.93;5.45;;;;;;;-5.74;46.54;100591.28;10506852;28;20044;-54
2020/12/11 03:43:47;;;;;;;11.55;4.65;;;;;;;-5.68;46.52;100591.25;10504911;28;20103;-52
2020/12/11 03:48:49;;;;;;;13.05;4.70;;;;;;;-5.66;46.48;100594.66;10502030;28;20052;-53
2020/12/11 03:53:52;;;;;;;19.45;6.65;;;;;;;-5.69;46.52;100594.69;10502509;28;20044;-52
2020/12/11 03:58:54;;;;;;;15.60;6.57;;;;;;;-5.70;46.63;100590.41;10504984;28;20087;-53
2020/12/11 04:03:55;;;;;;;13.55;5.00;;;;;;;-5.69;46.79;100598.97;10503930;28;20382;-55
2020/12/11 04:08:58;;;;;;;12.18;4.40;;;;;;;-5.72;46.98;100593.84;10502443;28;20052;-54
2020/12/11 04:14:00;;;;;;;6.73;3.13;;;;;;;-5.74;47.19;100591.28;10501322;28;20051;-53
2020/12/11 04:19:01;;;;;;;15.52;5.95;;;;;;;-5.72;47.05;100581.88;10502097;28;20056;-55
2020/12/11 04:24:04;;;;;;;16.05;5.40;;;;;;;-5.68;46.96;100586.13;10501796;28;20047;-54
2020/12/11 04:29:06;;;;;;;15.55;5.72;;;;;;;-5.60;46.46;100584.38;10504917;28;20055;-55
2020/12/11 04:34:07;;;;;;;13.70;5.78;;;;;;;-5.56;46.24;100587.78;10505406;28;20050;-55
2020/12/11 04:39:10;;;;;;;16.77;7.03;;;;;;;-5.54;46.10;100598.88;10501056;28;20062;-53
2020/12/11 04:44:12;;;;;;;18.40;6.00;;;;;;;-5.47;46.15;100600.53;10500467;28;20040;-53
2020/12/11 04:49:14;;;;;;;16.13;5.32;;;;;;;-5.48;46.14;100588.59;10501245;28;20071;-54
2020/12/11 04:54:19;;;;;;;14.02;5.03;;;;;;;-5.48;46.00;100593.72;10500491;28;20147;-54
2020/12/11 04:59:21;;;;;;;19.35;5.85;;;;;;;-5.51;46.17;100603.13;10460542;28;20059;-53
2020/12/11 05:04:23;;;;;;;20.65;7.88;;;;;;;-5.61;46.54;100598.03;10460722;28;20083;-53
2020/12/11 05:09:26;;;;;;;16.92;6.85;;;;;;;-5.60;46.28;100598.91;10501262;28;20555;-54
2020/12/11 05:14:31;;;;;;;26.50;8.17;;;;;;;-5.61;46.24;100599.75;10504804;28;20051;-54
2020/12/11 05:19:34;;;;;;;24.20;7.60;;;;;;;-5.61;46.41;100597.19;10504996;28;20110;-54
2020/12/11 05:24:44;;;;;;;16.88;6.15;;;;;;;-5.55;46.28;100602.28;10500662;28;20076;-53
2020/12/11 05:29:45;;;;;;;22.05;7.28;;;;;;;-5.51;46.36;100609.13;10499636;28;20052;-53
2020/12/11 05:34:47;;;;;;;21.92;7.75;;;;;;;-5.48;46.58;100608.22;10499617;28;20040;-53
2020/12/11 05:39:49;;;;;;;20.25;8.10;;;;;;;-5.41;46.29;100599.66;10499491;28;20049;-53
2020/12/11 05:44:51;;;;;;;36.10;9.05;;;;;;;-5.40;46.40;100602.19;10499528;28;20055;-54
2020/12/11 05:49:53;;;;;;;29.08;8.90;;;;;;;-5.37;46.56;100603.91;10498919;28;20048;-52
2020/12/11 05:54:55;;;;;;;28.98;8.85;;;;;;;-5.18;47.02;100608.03;10500446;28;20075;-53
2020/12/11 05:59:57;;;;;;;19.20;7.68;;;;;;;-4.61;47.47;100606.78;10500501;28;20056;-54
2020/12/11 06:05:00;;;;;;;17.15;6.72;;;;;;;-3.95;47.90;100614.66;10499816;28;20051;-52
2020/12/11 06:10:04;;;;;;;19.42;7.20;;;;;;;-3.08;47.95;100607.53;10498654;28;20048;-51
2020/12/11 06:15:13;;;;;;;22.23;8.60;;;;;;;-2.05;47.75;100603.25;10498127;28;20151;-53
2020/12/11 06:20:17;;;;;;;23.38;7.78;;;;;;;-0.98;47.12;100606.13;10499030;28;20169;-52
2020/12/11 06:25:28;;;;;;;18.98;7.53;;;;;;;0.07;46.30;100597.44;10498508;28;20052;-51
2020/12/11 06:30:31;;;;;;;16.42;7.03;;;;;;;-0.38;43.27;100602.94;10498087;28;20048;-54
2020/12/11 06:35:32;;;;;;;17.02;7.53;;;;;;;-1.20;43.50;100608.34;10497983;28;20053;-53
2020/12/11 06:40:49;;;;;;;21.42;7.35;;;;;;;-1.67;43.55;100610.22;10497816;28;20044;-55
2020/12/11 06:46:11;;;;;;;20.08;8.70;;;;;;;-1.83;43.43;100608.84;10498060;28;20048;-54
2020/12/11 06:51:13;;;;;;;19.05;8.88;;;;;;;-1.78;43.40;100619.91;10496258;28;20060;-53
2020/12/11 06:56:39;;;;;;;27.20;9.05;;;;;;;-1.82;43.00;100615.66;10456070;28;20148;-53
2020/12/11 07:01:40;;;;;;;24.20;8.77;;;;;;;-1.73;43.00;100610.34;10455268;28;20041;-51
2020/12/11 07:06:47;;;;;;;27.30;9.75;;;;;;;-1.52;42.50;100602.16;10476621;28;20056;-51
2020/12/11 07:11:50;;;;;;;29.95;10.82;;;;;;;-1.53;42.32;100610.78;10497419;28;20389;-54
2020/12/11 07:16:51;;;;;;;33.83;9.95;;;;;;;-1.34;42.55;100607.81;10496916;28;20059;-52
2020/12/11 07:21:55;;;;;;;33.53;13.02;;;;;;;-0.90;42.36;100600.78;10494884;28;20048;-51
2020/12/11 07:27:01;;;;;;;34.83;10.13;;;;;;;-0.02;42.39;100598.53;10498754;28;20478;-53
2020/12/11 07:32:03;;;;;;;20.38;10.18;;;;;;;0.80;41.57;100599.63;10496652;28;20040;-51
2020/12/11 07:37:05;;;;;;;31.70;9.82;;;;;;;1.53;41.21;100593.78;10499332;28;20044;-52
2020/12/11 07:42:09;;;;;;;31.75;10.95;;;;;;;1.80;41.07;100597.19;10496477;28;20359;-53
2020/12/11 07:47:13;;;;;;;28.60;10.57;;;;;;;2.40;40.19;100604.56;10502883;28;20060;-53
2020/12/11 07:52:21;;;;;;;;;;;;;;;3.18;40.67;100596.38;10503818;28;20139;-54
2020/12/11 07:57:25;;;;;;;35.80;11.65;;;;;;;3.23;38.96;100595.28;10504400;28;19924;-55
2020/12/11 08:02:27;;;;;;;27.42;11.88;;;;;;;2.64;39.40;100598.47;10504622;28;20534;-55
2020/12/11 08:07:30;;;;;;;21.83;10.70;;;;;;;1.82;38.32;100589.38;10503449;28;20052;-54
2020/12/11 08:12:32;;;;;;;21.10;10.48;;;;;;;1.38;39.59;100602.91;10507019;28;20040;-56
2020/12/11 08:17:34;;;;;;;19.52;8.85;;;;;;;1.13;39.62;100587.34;10506302;28;20048;-53
2020/12/11 08:22:37;;;;;;;26.85;11.27;;;;;;;0.89;39.58;100585.53;10503488;28;20076;-52
2020/12/11 08:27:40;;;;;;;22.63;11.47;;;;;;;0.67;39.30;100585.34;10504428;28;20045;-52
2020/12/11 08:32:42;;;;;;;22.92;10.15;;;;;;;0.51;39.83;100582.38;10500210;28;20046;-55
2020/12/11 08:37:51;;;;;;;22.52;9.43;;;;;;;0.63;39.71;100581.16;10502436;28;20504;-52
2020/12/11 08:43:05;;;;;;;25.88;10.98;;;;;;;1.00;39.04;100598.97;10502786;28;20040;-53
2020/12/11 08:53:35;;;;;;;23.40;8.98;;;;;;;0.98;39.36;100584.38;10486639;28;20048;-56
2020/12/11 08:58:38;;;;;;;25.65;9.38;;;;;;;1.37;39.66;100580.50;10491549;28;20114;-51
2020/12/11 09:03:40;;;;;;;19.90;9.48;;;;;;;3.66;39.25;100577.91;10461890;28;20106;-53
2020/12/11 09:08:41;;;;;;;21.40;9.88;;;;;;;5.56;38.01;100572.56;10498005;28;20385;-54
2020/12/11 09:13:44;;;;;;;24.65;10.13;;;;;;;6.98;35.56;100556.28;10501270;28;20370;-53
2020/12/11 09:18:46;;;;;;;22.85;10.65;;;;;;;7.49;35.05;100562.91;10497576;28;20052;-58
2020/12/11 09:23:47;;;;;;;18.92;9.15;;;;;;;8.04;34.91;100559.59;10500414;28;20040;-56
2020/12/11 09:28:55;;;;;;;20.25;8.60;;;;;;;8.64;34.69;100553.28;10500172;28;20473;-55
2020/12/11 09:33:57;;;;;;;20.50;9.43;;;;;;;8.89;33.25;100549.09;10499528;28;20185;-55
2020/12/11 09:38:58;;;;;;;21.77;9.55;;;;;;;9.26;32.64;100544.91;10500226;28;20144;-56
2020/12/11 09:44:31;;;;;;;20.92;10.32;;;;;;;9.20;31.68;100538.25;10500296;28;20080;-54
2020/12/11 09:49:38;;;;;;;20.25;9.43;;;;;;;8.65;32.14;100541.88;10499561;28;20096;-58
2020/12/11 09:54:40;;;;;;;28.35;10.95;;;;;;;7.15;32.85;100540.50;10491607;28;20405;-56
2020/12/11 09:59:48;;;;;;;27.50;11.48;;;;;;;5.92;33.39;100541.13;10499297;28;20052;-53
2020/12/11 10:04:50;;;;;;;26.65;11.57;;;;;;;4.96;33.97;100537.28;10498818;28;20108;-52
2020/12/11 10:09:51;;;;;;;21.63;10.60;;;;;;;4.13;34.46;100530.75;10497170;28;20060;-52
2020/12/11 10:14:58;;;;;;;23.20;9.80;;;;;;;3.46;35.06;100523.31;10499591;28;20055;-54
2020/12/11 10:19:59;;;;;;;26.20;11.57;;;;;;;2.82;35.61;100516.41;10498603;28;20489;-52
2020/12/11 10:25:01;;;;;;;28.45;12.70;;;;;;;2.61;36.08;100518.09;10498143;28;20044;-53
2020/12/11 10:30:03;;;;;;;26.05;9.80;;;;;;;2.31;35.98;100520.16;10498217;28;20052;-52
2020/12/11 10:35:06;;;;;;;19.85;10.60;;;;;;;1.97;36.35;100533.50;10497528;28;20058;-52
2020/12/11 10:40:08;;;;;;;33.93;11.67;;;;;;;1.47;37.03;100525.78;10496804;28;20492;-54
2020/12/11 10:45:11;;;;;;;28.15;10.00;;;;;;;0.97;37.70;100523.16;10501488;28;20047;-53
2020/12/11 10:50:12;;;;;;;24.02;9.35;;;;;;;0.65;38.65;100519.88;10498778;28;20382;-51
2020/12/11 10:55:14;;;;;;;19.55;8.93;;;;;;;0.51;38.43;100511.66;10497137;28;20049;-52
2020/12/11 11:00:16;;;;;;;23.80;10.80;;;;;;;0.41;39.04;100511.94;10498106;28;20056;-55
2020/12/11 11:05:18;;;;;;;25.70;10.30;;;;;;;0.44;38.58;100508.44;10498235;28;20396;-53
2020/12/11 11:10:29;;;;;;;23.48;10.05;;;;;;;0.50;39.00;100502.22;10499189;28;20400;-52
2020/12/11 11:15:44;;;;;;;26.45;11.25;;;;;;;0.49;39.03;100493.59;10498741;28;20509;-54
2020/12/11 11:31:52;;;;;;;28.30;13.75;;;;;;;0.12;39.51;100493.88;10482269;28;20066;-53
2020/12/11 11:36:55;;;;;;;28.17;14.35;;;;;;;-0.04;39.84;100489.16;10507192;28;20131;-52
2020/12/11 11:41:57;;;;;;;22.98;12.40;;;;;;;-0.19;39.74;100491.31;10504830;28;20074;-52
2020/12/11 11:47:00;;;;;;;25.25;10.18;;;;;;;-0.33;40.09;100495.16;10502940;28;20054;-52
2020/12/11 11:52:12;;;;;;;27.63;10.10;;;;;;;-0.45;39.74;100494.66;10502439;28;20044;-52
2020/12/11 11:57:14;;;;;;;22.70;10.00;;;;;;;-0.50;39.63;100489.59;10504397;28;20048;-52
2020/12/11 12:02:16;;;;;;;22.80;8.13;;;;;;;-0.53;39.90;100490.50;10504267;28;20052;-52
2020/12/11 12:07:18;;;;;;;23.17;10.63;;;;;;;-0.57;39.60;100494.06;10503863;28;20056;-52
2020/12/11 12:12:20;;;;;;;18.08;7.90;;;;;;;-0.62;39.20;100480.44;10505735;28;20048;-54
2020/12/11 12:17:30;;;;;;;18.33;7.57;;;;;;;-0.71;39.43;100480.69;10505383;28;20052;-53
2020/12/11 12:38:30;;;;;;;23.73;8.60;;;;;;;-0.78;39.03;100484.31;10480030;28;20049;-54
2020/12/11 12:43:32;;;;;;;21.93;8.90;;;;;;;-0.85;39.41;100482.78;10501731;28;20076;-51
2020/12/11 12:48:34;;;;;;;23.80;8.85;;;;;;;-0.91;39.00;100477.78;10501450;28;20128;-53
2020/12/11 12:53:36;;;;;;;24.23;7.07;;;;;;;-1.02;38.91;100481.47;10501371;28;20048;-54
2020/12/11 12:58:42;;;;;;;20.38;7.57;;;;;;;-1.12;39.23;100469.69;10501420;28;20090;-52
2020/12/11 13:04:09;;;;;;;20.40;8.30;;;;;;;-1.18;39.37;100482.75;10500113;28;20074;-51
2020/12/11 13:09:11;;;;;;;26.73;8.00;;;;;;;-1.29;39.56;100485.59;10459310;28;20044;-54
2020/12/11 13:14:13;;;;;;;27.77;8.95;;;;;;;-1.39;39.42;100478.94;10462583;28;20052;-52
2020/12/11 13:19:17;;;;;;;26.75;8.57;;;;;;;-1.50;39.64;100484.38;10461756;28;20056;-52
2020/12/11 13:29:39;;;;;;;20.08;9.73;;;;;;;-1.68;39.40;100480.47;10476429;28;20139;-56
2020/12/11 13:34:42;;;;;;;20.77;7.45;;;;;;;-1.66;39.39;100483.03;10496575;28;20048;-52
2020/12/11 13:39:43;;;;;;;12.38;5.43;;;;;;;-1.70;39.42;100491.69;10502189;28;20045;-54
2020/12/11 13:44:45;;;;;;;16.23;6.85;;;;;;;-1.87;39.44;100485.19;10501423;28;20044;-52
2020/12/11 13:49:48;;;;;;;13.75;6.32;;;;;;;-2.05;40.05;100490.72;10498923;28;20400;-51
2020/12/11 13:54:49;;;;;;;20.83;8.05;;;;;;;-2.17;40.31;100485.81;10498287;28;20056;-54
2020/12/11 13:59:53;;;;;;;25.63;10.80;;;;;;;-2.27;40.83;100495.47;10490803;28;20052;-51
2020/12/11 14:04:55;;;;;;;17.30;7.85;;;;;;;-2.40;40.79;100492.28;10484367;28;20049;-56
2020/12/11 14:09:57;;;;;;;32.15;10.35;;;;;;;-2.45;41.02;100481.22;10499128;28;20116;-51
2020/12/11 14:14:59;;;;;;;19.70;8.80;;;;;;;-2.50;41.14;100487.34;10498753;28;20154;-55
2020/12/11 14:20:23;;;;;;;21.55;7.85;;;;;;;-2.58;41.33;100484.91;10500269;28;20060;-62
2020/12/11 14:25:25;;;;;;;23.33;8.95;;;;;;;-2.69;41.54;100487.69;10502346;28;20040;-52
2020/12/11 14:30:27;;;;;;;26.25;9.57;;;;;;;-2.77;41.48;100494.72;10499982;28;20489;-52
2020/12/11 14:35:29;;;;;;;16.80;7.90;;;;;;;-2.82;41.62;100492.19;10496126;28;20127;-57
2020/12/11 14:40:31;;;;;;;25.00;8.18;;;;;;;-2.85;41.83;100494.00;10497981;28;20051;-53
2020/12/11 14:45:32;;;;;;;23.50;8.20;;;;;;;-2.87;41.63;100486.28;10498600;28;20040;-53
2020/12/11 14:50:35;;;;;;;25.98;10.35;;;;;;;-2.88;41.78;100492.31;10496510;28;20048;-54
2020/12/11 14:55:37;;;;;;;27.08;8.25;;;;;;;-2.91;41.77;100494.09;10497447;28;20052;-52
2020/12/11 15:00:38;;;;;;;23.58;8.82;;;;;;;-2.94;41.91;100481.28;10497985;28;20048;-54
2020/12/11 15:05:41;;;;;;;27.70;10.57;;;;;;;-2.98;41.95;100482.22;10497072;28;20096;-51
2020/12/11 15:10:42;;;;;;;24.45;9.90;;;;;;;-3.03;42.00;100479.72;10496956;28;20040;-54
2020/12/11 15:15:44;;;;;;;19.40;8.82;;;;;;;-3.11;42.04;100473.84;10496914;28;20048;-51
2020/12/11 15:20:49;;;;;;;17.42;6.13;;;;;;;-3.15;41.98;100478.19;10495721;28;20061;-52
2020/12/11 15:25:50;;;;;;;14.57;7.13;;;;;;;-3.22;42.34;100492.03;10497394;28;20052;-55
2020/12/11 15:30:52;;;;;;;26.88;8.60;;;;;;;-3.29;42.15;100475.84;10496399;28;20044;-51
2020/12/11 15:35:54;;;;;;;18.85;8.23;;;;;;;-3.30;42.32;100489.56;10497811;28;20048;-50
2020/12/11 15:40:56;;;;;;;16.90;7.22;;;;;;;-3.39;42.33;100492.28;10496983;28;20139;-51
2020/12/11 15:45:58;;;;;;;23.27;8.73;;;;;;;-3.42;42.45;100492.31;10495179;28;20059;-51
2020/12/11 15:51:00;;;;;;;17.73;7.90;;;;;;;-3.48;42.57;100490.72;10494420;28;20461;-51
2020/12/11 15:56:02;;;;;;;22.42;9.65;;;;;;;-3.54;42.55;100479.66;10496373;28;20369;-52
2020/12/11 16:01:04;;;;;;;19.40;7.85;;;;;;;-3.59;42.62;100491.75;10481953;28;20049;-50
2020/12/11 16:06:07;;;;;;;21.45;9.60;;;;;;;-3.67;42.47;100483.28;10474646;28;20052;-50
2020/12/11 16:11:09;;;;;;;22.37;8.83;;;;;;;-3.68;42.55;100484.19;10503762;28;20143;-53
2020/12/11 16:16:10;;;;;;;15.27;8.13;;;;;;;-3.79;42.87;100485.16;10502815;28;20386;-50
2020/12/11 16:21:13;;;;;;;20.98;6.47;;;;;;;-3.86;42.83;100487.84;10503653;28;20063;-51
2020/12/11 16:26:15;;;;;;;22.50;9.75;;;;;;;-3.90;42.83;100476.78;10502407;28;20040;-50
2020/12/11 16:31:18;;;;;;;18.52;7.85;;;;;;;-3.97;43.07;100470.03;10486004;28;20083;-54
2020/12/11 16:36:20;;;;;;;18.85;7.40;;;;;;;-4.08;43.13;100472.72;10462555;28;20044;-51
2020/12/11 16:41:22;;;;;;;23.58;9.00;;;;;;;-4.20;43.19;100478.84;10473743;28;20143;-55
2020/12/11 16:46:25;;;;;;;21.50;9.25;;;;;;;-4.28;43.69;100475.56;10502116;28;20135;-51
2020/12/11 16:51:32;;;;;;;18.58;8.23;;;;;;;-4.37;43.73;100483.38;10501392;28;20174;-53
2020/12/11 16:56:34;;;;;;;21.88;7.38;;;;;;;-4.42;43.91;100472.28;10495600;28;20116;-52
2020/12/11 17:01:39;;;;;;;24.88;10.02;;;;;;;-4.48;43.91;100482.63;10474141;28;20057;-51
2020/12/11 17:06:46;;;;;;;24.30;8.60;;;;;;;-4.55;44.28;100470.75;10481079;28;20395;-51
2020/12/11 17:11:56;;;;;;;26.52;8.18;;;;;;;-4.54;43.89;100472.44;10501724;28;20048;-53
2020/12/11 17:17:03;;;;;;;24.88;10.20;;;;;;;-4.62;44.00;100469.94;10502286;28;20098;-53
2020/12/11 17:22:08;;;;;;;21.15;10.68;;;;;;;-4.59;43.97;100471.63;10501549;28;20038;-51
2020/12/11 17:27:10;;;;;;;19.60;9.18;;;;;;;-4.59;43.68;100469.91;10500372;28;20506;-54
2020/12/11 17:32:29;;;;;;;26.95;10.63;;;;;;;-4.59;43.55;100461.34;10499487;28;20072;-52
2020/12/11 17:37:32;;;;;;;24.92;10.50;;;;;;;-4.61;43.62;100456.25;10499877;28;20052;-54
2020/12/11 17:42:34;;;;;;;29.13;9.90;;;;;;;-4.65;43.54;100460.56;10504577;28;20040;-56
2020/12/11 17:47:36;;;;;;;16.08;8.45;;;;;;;-4.65;43.55;100464.84;10501121;28;20143;-50
2020/12/11 17:52:38;;;;;;;25.27;8.75;;;;;;;-4.68;43.31;100460.63;10499710;28;20488;-52
2020/12/11 17:57:45;;;;;;;23.92;8.98;;;;;;;-4.65;43.47;100465.72;10499965;28;20064;-50
2020/12/11 18:02:48;;;;;;;29.42;9.75;;;;;;;-4.60;43.38;100477.63;10456573;28;20069;-53
2020/12/11 18:07:51;;;;;;;24.30;9.15;;;;;;;-4.61;43.37;100478.50;10487469;28;20507;-55
2020/12/11 18:12:53;;;;;;;28.80;9.90;;;;;;;-4.64;43.44;100481.94;10498698;28;20044;-54
2020/12/11 18:17:54;;;;;;;22.38;9.25;;;;;;;-4.66;43.44;100487.06;10498298;28;20497;-52
2020/12/11 18:22:59;;;;;;;22.55;8.30;;;;;;;-4.70;43.64;100482.84;10499096;28;20037;-51
2020/12/11 18:28:01;;;;;;;23.80;9.40;;;;;;;-4.72;43.60;100482.00;10499058;28;20044;-54
2020/12/11 18:33:05;;;;;;;21.95;8.73;;;;;;;-4.73;43.96;100488.03;10492000;28;20127;-51
2020/12/11 18:38:08;;;;;;;21.02;8.38;;;;;;;-4.66;43.43;100486.22;10505133;28;20044;-51
2020/12/11 18:43:09;;;;;;;20.63;7.40;;;;;;;-4.65;43.75;100485.34;10505281;28;20459;-52
2020/12/11 18:48:13;;;;;;;24.25;8.65;;;;;;;-4.67;43.55;100477.69;10503310;28;20147;-53
2020/12/11 18:53:16;;;;;;;23.08;8.32;;;;;;;-4.72;43.71;100479.44;10504208;28;20131;-53
2020/12/11 18:58:18;;;;;;;18.73;7.80;;;;;;;-4.75;43.42;100481.19;10503912;28;20072;-51
2020/12/11 19:03:20;;;;;;;28.20;9.00;;;;;;;-4.80;43.66;100476.13;10504286;28;20055;-52
2020/12/11 19:08:23;;;;;;;24.65;9.80;;;;;;;-4.79;43.56;100471.84;10504516;28;20045;-51
2020/12/11 19:13:26;;;;;;;21.87;7.87;;;;;;;-4.82;43.39;100467.59;10499380;28;20140;-51
2020/12/11 19:18:28;;;;;;;19.63;8.90;;;;;;;-4.84;43.51;100466.75;10500585;28;20306;-51
2020/12/11 19:23:31;;;;;;;17.63;8.55;;;;;;;-4.91;43.67;100467.69;10501565;28;20048;-53
2020/12/11 19:28:32;;;;;;;20.48;6.40;;;;;;;-4.91;43.60;100472.81;10501390;28;20516;-51
2020/12/11 19:33:35;;;;;;;17.55;7.50;;;;;;;-4.95;43.81;100486.53;10498936;28;20045;-51
2020/12/11 19:38:38;;;;;;;24.90;10.13;;;;;;;-4.99;44.02;100485.69;10501668;28;20083;-57
2020/12/11 19:43:39;;;;;;;15.48;5.97;;;;;;;-4.92;43.47;100486.50;10508515;28;20048;-50
2020/12/11 19:48:41;;;;;;;13.75;7.38;;;;;;;-4.95;43.55;100483.97;10507746;28;20384;-53
2020/12/11 19:53:44;;;;;;;18.80;7.78;;;;;;;-5.06;44.00;100478.09;10508703;28;20052;-50
2020/12/11 19:58:46;;;;;;;24.00;8.93;;;;;;;-5.16;44.05;100485.00;10503023;28;20095;-51
2020/12/11 20:03:48;;;;;;;24.70;9.20;;;;;;;-5.13;44.09;100485.81;10503296;28;20102;-53
2020/12/11 20:14:11;;;;;;;22.98;10.18;;;;;;;-5.19;44.21;100488.44;10503634;28;20056;-52
2020/12/11 20:19:13;;;;;;;22.30;8.65;;;;;;;-5.21;44.10;100479.91;10497878;28;20086;-51
2020/12/11 20:24:16;;;;;;;18.25;8.23;;;;;;;-5.26;44.47;100485.94;10496650;28;20126;-52
2020/12/11 20:29:18;;;;;;;20.80;8.23;;;;;;;-5.25;43.90;100470.56;10507206;28;20125;-49
2020/12/11 20:34:20;;;;;;;20.67;7.63;;;;;;;-5.24;43.94;100473.97;10486045;28;20077;-50
2020/12/11 20:39:24;;;;;;;19.83;8.55;;;;;;;-5.26;43.94;100471.41;10464069;28;20394;-50
2020/12/11 20:44:26;;;;;;;27.00;8.75;;;;;;;-5.28;44.03;100478.25;10501261;28;20055;-49
2020/12/11 20:49:28;;;;;;;21.90;8.33;;;;;;;-5.26;44.00;100463.72;10503026;28;20059;-52
2020/12/11 20:54:31;;;;;;;17.23;7.88;;;;;;;-5.24;43.86;100456.00;10504020;28;20436;-50
2020/12/11 20:59:34;;;;;;;15.37;6.07;;;;;;;-5.27;44.00;100456.03;10504694;28;20044;-49
2020/12/11 21:04:35;;;;;;;24.87;9.40;;;;;;;-5.32;44.16;100450.97;10505500;28;20321;-51
2020/12/11 21:09:39;;;;;;;26.25;9.45;;;;;;;-5.33;44.07;100444.13;10504950;28;20101;-50
2020/12/11 21:14:41;;;;;;;17.38;7.75;;;;;;;-5.33;44.08;100437.31;10505624;28;20535;-50
2020/12/11 21:19:43;;;;;;;23.67;8.98;;;;;;;-5.36;44.22;100434.78;10501077;28;20055;-50
2020/12/11 21:24:47;;;;;;;20.17;7.75;;;;;;;-5.38;44.27;100430.53;10502789;28;20048;-50
2020/12/11 21:29:49;;;;;;;18.67;9.40;;;;;;;-5.35;44.39;100430.50;10503310;28;20060;-53
2020/12/11 21:40:11;;;;;;;21.73;7.90;;;;;;;-5.35;44.14;100417.69;10464588;28;20090;-50
2020/12/11 21:45:13;;;;;;;23.52;9.75;;;;;;;-5.35;44.06;100415.97;10502643;28;20051;-53
2020/12/11 21:50:15;;;;;;;22.90;8.70;;;;;;;-5.32;44.17;100420.22;10497459;28;20377;-53
2020/12/11 21:55:18;;;;;;;18.02;6.22;;;;;;;-5.28;43.93;100411.63;10498478;28;20900;-51
2020/12/11 22:00:20;;;;;;;22.90;9.18;;;;;;;-5.36;44.12;100423.66;10500813;28;20052;-50
2020/12/11 22:05:22;;;;;;;24.73;7.90;;;;;;;-5.42;44.10;100413.44;10501597;28;20072;-50
2020/12/11 22:10:25;;;;;;;26.88;9.38;;;;;;;-5.46;44.17;100414.34;10499650;28;20064;-50
2020/12/11 22:15:27;;;;;;;17.10;8.57;;;;;;;-5.46;44.13;100404.09;10499885;28;20822;-53
2020/12/11 22:20:29;;;;;;;15.60;6.20;;;;;;;-5.54;44.45;100414.44;10503551;28;20493;-50
2020/12/11 22:25:31;;;;;;;13.55;6.68;;;;;;;-5.61;44.58;100407.63;10499499;28;20048;-52
2020/12/11 22:30:34;;;;;;;19.70;6.77;;;;;;;-5.65;44.24;100404.25;10500826;28;20058;-50
2020/12/11 22:35:36;;;;;;;21.40;6.20;;;;;;;-5.69;44.78;100405.16;10503805;28;20048;-50
2020/12/11 22:40:40;;;;;;;19.15;7.78;;;;;;;-5.80;45.10;100406.94;10500821;28;20473;-51
2020/12/11 22:45:42;;;;;;;17.00;6.60;;;;;;;-5.87;45.08;100395.88;10487313;28;20044;-50
2020/12/11 22:50:44;;;;;;;21.33;8.05;;;;;;;-5.90;45.33;100387.38;10501763;28;20055;-49
2020/12/11 22:55:47;;;;;;;20.23;8.80;;;;;;;-5.91;45.11;100385.66;10502975;28;20445;-49
2020/12/11 23:00:48;;;;;;;19.10;7.10;;;;;;;-5.91;45.22;100378.84;10502141;28;20052;-52
2020/12/11 23:05:50;;;;;;;22.48;8.77;;;;;;;-5.94;45.39;100396.84;10501407;28;20294;-54
2020/12/11 23:10:53;;;;;;;20.63;9.30;;;;;;;-5.98;45.17;100399.41;10502282;28;20068;-50
2020/12/11 23:15:56;;;;;;;17.33;6.00;;;;;;;-6.04;45.53;100403.69;10506144;28;20102;-49
2020/12/11 23:20:58;;;;;;;20.02;8.93;;;;;;;-6.03;45.53;100410.53;10510041;28;20055;-50
2020/12/11 23:26:06;;;;;;;24.63;8.32;;;;;;;-5.99;45.20;100405.41;10509957;28;20110;-51
2020/12/11 23:31:11;;;;;;;16.58;6.50;;;;;;;-5.97;45.25;100403.66;10508661;28;20053;-52
2020/12/11 23:36:15;;;;;;;17.42;7.28;;;;;;;-6.05;45.15;100408.84;10507935;28;20106;-50
2020/12/11 23:41:25;;;;;;;20.38;10.20;;;;;;;-6.07;45.14;100408.84;10509405;28;20105;-49
2020/12/11 23:46:27;;;;;;;19.67;8.07;;;;;;;-6.07;45.02;100402.88;10508888;28;20076;-49